Time;durP1;ratioP1;P1;durP2;ratioP2;P2;SDS_P1;SDS_P2;PMS_P1;PMS_P2;Temp;Humidity;BMP_temperature;BMP_pressure;BME280_temperature;BME280_humidity;BME280_pressure;Samples;Min_cycle;Max_cycle;Signal;HPM_P1;HPM_P2
2022/10/23 00:00:24;;;;;;;38.92;21.17;;;;;;;7.11;100.00;99197.79;1689535;84;20950;-77
2022/10/23 00:02:54;;;;;;;34.35;19.92;;;;;;;7.09;100.00;99193.19;1688157;84;21455;-78
2022/10/23 00:05:21;;;;;;;40.28;21.15;;;;;;;7.09;100.00;99189.09;1690077;84;21016;-77
2022/10/23 00:07:57;;;;;;;43.10;21.35;;;;;;;7.08;100.00;99189.65;1688575;84;20931;-77
2022/10/23 00:10:30;;;;;;;37.93;20.68;;;;;;;7.07;100.00;99189.95;1689383;84;20934;-76
2022/10/23 00:13:04;;;;;;;38.78;21.35;;;;;;;7.06;100.00;99180.14;1694849;83;20904;-76
2022/10/23 00:15:30;;;;;;;38.13;21.07;;;;;;;7.04;100.00;99179.63;1708624;82;21043;-77
2022/10/23 00:18:03;;;;;;;34.85;18.87;;;;;;;7.03;100.00;99176.09;1722034;83;20888;-77
2022/10/23 00:20:39;;;;;;;39.70;19.55;;;;;;;7.02;100.00;99173.11;1724808;83;20923;-77
2022/10/23 00:23:09;;;;;;;35.85;19.52;;;;;;;7.00;100.00;99166.34;1692008;83;21234;-77
2022/10/23 00:25:42;;;;;;;39.75;21.45;;;;;;;6.99;100.00;99175.08;1689716;83;20994;-78
2022/10/23 00:28:13;;;;;;;38.75;22.02;;;;;;;6.99;100.00;99168.25;1689473;84;20920;-78
2022/10/23 00:30:50;;;;;;;37.08;21.97;;;;;;;6.98;100.00;99165.83;1700942;84;20935;-79
2022/10/23 00:33:19;;;;;;;41.77;21.05;;;;;;;6.97;100.00;99165.02;1689661;84;20936;-80
2022/10/23 00:35:46;;;;;;;35.52;20.37;;;;;;;6.98;100.00;99161.73;1688528;84;21565;-79
2022/10/23 00:38:18;;;;;;;37.78;21.42;;;;;;;6.98;100.00;99158.45;1701687;82;21011;-80
2022/10/23 00:40:55;;;;;;;41.88;22.00;;;;;;;6.98;100.00;99158.45;1715247;82;21549;-80
2022/10/23 00:43:28;;;;;;;39.70;20.15;;;;;;;6.99;100.00;99158.70;1712369;83;21454;-83
2022/10/23 00:45:59;;;;;;;39.70;21.82;;;;;;;6.98;100.00;99154.36;1699679;82;21506;-85
2022/10/23 00:48:34;;;;;;;46.23;22.37;;;;;;;6.97;100.00;99154.10;1714318;82;20935;-80
2022/10/23 00:51:02;;;;;;;45.25;22.80;;;;;;;6.97;100.00;99152.73;1694054;83;20956;-82
2022/10/23 00:53:29;;;;;;;40.58;21.65;;;;;;;6.96;100.00;99144.30;1719338;83;21521;-83
2022/10/23 00:56:02;;;;;;;43.38;25.65;;;;;;;6.96;100.00;99143.73;1724787;82;20903;-82
2022/10/23 00:58:30;;;;;;;48.87;26.23;;;;;;;6.97;100.00;99141.82;1691083;83;21043;-83
2022/10/23 01:00:59;;;;;;;47.98;28.07;;;;;;;6.99;100.00;99141.52;1696403;82;21069;-82
2022/10/23 01:03:39;;;;;;;50.92;30.52;;;;;;;7.02;100.00;99143.64;1692272;82;21195;-82
2022/10/23 01:06:14;;;;;;;47.80;28.02;;;;;;;7.03;100.00;99143.34;1716195;83;20938;-82
2022/10/23 01:08:54;;;;;;;48.58;28.92;;;;;;;7.04;100.00;99131.87;1692324;83;20900;-82
2022/10/23 01:11:27;;;;;;;44.70;27.80;;;;;;;7.03;100.00;99125.61;1690501;83;21398;-83
2022/10/23 01:14:27;;;;;;;43.13;26.27;;;;;;;7.04;100.00;99130.51;1690009;84;21248;-81
2022/10/23 01:17:32;;;;;;;47.83;27.42;;;;;;;7.03;100.00;99122.06;1709821;83;20946;-81
2022/10/23 01:20:24;;;;;;;52.10;30.45;;;;;;;7.03;100.00;99126.97;1649621;83;20861;-81
2022/10/23 01:23:07;;;;;;;60.90;33.70;;;;;;;7.06;100.00;99126.92;1691022;83;21455;-81
2022/10/23 01:25:47;;;;;;;59.85;32.93;;;;;;;7.08;100.00;99124.70;1699021;82;21022;-81
2022/10/23 01:28:25;;;;;;;54.50;32.20;;;;;;;7.08;100.00;99121.97;1689595;84;21176;-81
2022/10/23 01:30:57;;;;;;;42.45;25.92;;;;;;;7.09;100.00;99119.49;1669960;84;20904;-82
2022/10/23 01:33:32;;;;;;;;;;;;;;;7.11;100.00;99124.09;1695651;83;20939;-82
2022/10/23 01:36:05;;;;;;;44.85;24.35;;;;;;;7.11;100.00;99122.17;1713292;82;20102;-81
2022/10/23 01:38:56;;;;;;;45.80;22.93;;;;;;;7.13;100.00;99124.59;1700603;83;20903;-82
2022/10/23 01:41:34;;;;;;;43.42;24.15;;;;;;;7.13;100.00;99124.59;1689444;83;21168;-82
2022/10/23 01:44:17;;;;;;;43.30;24.47;;;;;;;7.13;100.00;99132.23;1702236;83;20923;-82
2022/10/23 01:46:44;;;;;;;44.85;25.00;;;;;;;7.13;100.00;99134.16;1702496;83;21647;-81
2022/10/23 01:49:15;;;;;;;43.42;25.50;;;;;;;7.11;100.00;99136.38;1689350;83;21419;-82
2022/10/23 01:51:50;;;;;;;;;;;;;;;7.10;100.00;99133.39;1689866;84;20884;-82
2022/10/23 01:54:15;;;;;;;44.42;23.87;;;;;;;7.08;100.00;99128.79;1688838;83;21800;-81
2022/10/23 01:56:50;;;;;;;44.93;25.68;;;;;;;7.05;100.00;99134.30;1701625;83;20857;-82
2022/10/23 01:59:24;;;;;;;46.00;24.25;;;;;;;7.04;100.00;99130.51;1675985;84;20979;-82
2022/10/23 02:01:55;;;;;;;46.48;26.37;;;;;;;7.05;100.00;99137.58;1712385;82;21010;-81
2022/10/23 02:04:32;;;;;;;46.60;25.07;;;;;;;7.04;100.00;99134.05;1720715;83;20891;-82
2022/10/23 02:07:06;;;;;;;43.50;24.52;;;;;;;7.03;100.00;99136.52;1725158;82;21928;-81
2022/10/23 02:09:35;;;;;;;48.20;26.40;;;;;;;7.03;100.00;99132.42;1689065;84;21478;-80
2022/10/23 02:12:18;;;;;;;45.40;26.15;;;;;;;7.03;100.00;99129.70;1674171;84;20895;-81
2022/10/23 02:15:14;;;;;;;46.15;26.30;;;;;;;7.02;100.00;99128.08;1685588;83;21459;-80
2022/10/23 02:18:03;;;;;;;45.78;25.45;;;;;;;7.02;100.00;99130.81;1693925;82;20967;-79
2022/10/23 02:20:50;;;;;;;51.08;26.07;;;;;;;7.00;100.00;99129.49;1694925;83;21022;-80
2022/10/23 02:23:22;;;;;;;51.42;27.27;;;;;;;7.00;100.00;99126.77;1683068;83;20982;-79
2022/10/23 02:26:25;;;;;;;43.33;25.68;;;;;;;6.98;100.00;99127.06;1709116;81;20936;-80
2022/10/23 02:29:14;;;;;;;48.40;27.10;;;;;;;6.98;100.00;99127.62;1704961;82;20985;-80
2022/10/23 02:31:49;;;;;;;50.40;27.60;;;;;;;6.94;100.00;99120.03;1682209;84;20856;-80
2022/10/23 02:34:23;;;;;;;48.30;27.73;;;;;;;6.94;100.00;99119.23;1712529;82;20983;-80
2022/10/23 02:36:50;;;;;;;50.08;27.58;;;;;;;6.95;100.00;99122.21;1687043;83;20930;-80
2022/10/23 02:39:21;;;;;;;49.20;27.95;;;;;;;6.94;100.00;99121.40;1726652;82;20894;-80
2022/10/23 02:42:13;;;;;;;50.92;26.90;;;;;;;6.95;100.00;99118.92;1690083;84;20975;-79
2022/10/23 02:45:09;;;;;;;46.45;26.80;;;;;;;6.97;100.00;99121.35;1689197;84;20950;-78
2022/10/23 02:48:00;;;;;;;51.80;27.73;;;;;;;7.01;100.00;99118.83;1688856;84;21162;-79
2022/10/23 02:50:49;;;;;;;47.17;26.60;;;;;;;7.01;100.00;99118.27;1674294;85;20996;-79
2022/10/23 02:53:33;;;;;;;46.60;27.73;;;;;;;7.03;100.00;99117.97;1723221;82;21577;-78
2022/10/23 02:56:29;;;;;;;49.40;28.02;;;;;;;7.04;100.00;99117.67;1712033;82;20935;-81
2022/10/23 02:59:47;;;;;;;51.25;28.07;;;;;;;7.05;100.00;99121.20;1685689;83;20975;-79
2022/10/23 03:02:47;;;;;;;46.15;27.00;;;;;;;7.07;100.00;99114.89;1707769;82;21276;-80
2022/10/23 03:05:25;;;;;;;48.55;26.25;;;;;;;7.08;100.00;99110.50;1693290;82;21116;-80
2022/10/23 03:08:01;;;;;;;50.25;27.13;;;;;;;7.12;100.00;99109.33;1650858;86;21515;-80
2022/10/23 03:10:31;;;;;;;45.30;26.93;;;;;;;7.12;100.00;99115.59;1637214;86;21073;-80
2022/10/23 03:13:06;;;;;;;49.13;27.45;;;;;;;7.15;100.00;99110.90;1711428;82;21751;-80
2022/10/23 03:15:41;;;;;;;52.62;28.17;;;;;;;7.17;100.00;99111.96;1653833;84;21018;-80
2022/10/23 03:18:19;;;;;;;48.05;28.75;;;;;;;7.19;100.00;99112.47;1701418;82;20899;-79
2022/10/23 03:20:49;;;;;;;51.55;27.98;;;;;;;7.20;100.00;99112.16;1690384;82;20935;-80
2022/10/23 03:23:15;;;;;;;47.93;27.52;;;;;;;7.22;100.00;99111.86;1704701;81;21486;-80
2022/10/23 03:25:44;;;;;;;44.70;25.97;;;;;;;7.24;100.00;99113.73;1715354;82;21418;-80
2022/10/23 03:28:17;;;;;;;45.30;26.85;;;;;;;7.25;100.00;99107.16;1689901;84;21363;-79
2022/10/23 03:30:53;;;;;;;50.95;26.95;;;;;;;7.27;100.00;99107.11;1690347;84;21573;-78
2022/10/23 03:33:25;;;;;;;44.27;26.93;;;;;;;7.29;100.00;99108.17;1691324;84;20935;-82
2022/10/23 03:35:52;;;;;;;50.45;27.70;;;;;;;7.31;100.00;99111.41;1683360;84;21083;-69
2022/10/23 03:38:20;;;;;;;48.08;26.55;;;;;;;7.32;100.00;99114.38;1692519;84;21018;-74
2022/10/23 03:40:49;;;;;;;52.20;28.62;;;;;;;7.32;100.00;99109.48;1689680;84;21256;-72
2022/10/23 03:43:17;;;;;;;49.73;27.87;;;;;;;7.32;100.00;99112.21;1691043;83;20912;-73
2022/10/23 03:45:51;;;;;;;45.85;26.85;;;;;;;7.33;100.00;99107.00;1653214;85;20981;-72
2022/10/23 03:48:22;;;;;;;48.52;26.85;;;;;;;7.34;100.00;99111.34;1696376;83;20895;-70
2022/10/23 03:50:57;;;;;;;53.30;27.80;;;;;;;7.34;100.00;99109.98;1711074;81;21037;-69
2022/10/23 03:53:25;;;;;;;54.35;25.90;;;;;;;7.35;100.00;99112.41;1713952;81;20911;-70
2022/10/23 03:55:58;;;;;;;47.15;27.50;;;;;;;7.36;100.00;99106.39;1710702;82;20895;-70
2022/10/23 03:58:30;;;;;;;45.10;27.20;;;;;;;7.37;100.00;99112.11;1710190;83;20947;-82
2022/10/23 04:00:58;;;;;;;49.60;25.80;;;;;;;7.37;100.00;99110.19;1702696;84;21070;-80
2022/10/23 04:03:28;;;;;;;52.08;27.20;;;;;;;7.38;100.00;99108.27;1689532;84;21577;-82
2022/10/23 04:05:57;;;;;;;42.20;25.70;;;;;;;7.39;100.00;99100.33;1646287;86;21135;-78
2022/10/23 04:08:30;;;;;;;47.33;25.68;;;;;;;7.40;100.00;99105.48;1647238;86;20916;-81
2022/10/23 04:10:59;;;;;;;43.33;25.35;;;;;;;7.42;100.00;99101.08;1688757;84;21609;-81
2022/10/23 04:13:29;;;;;;;42.83;26.95;;;;;;;7.44;100.00;99099.66;1657701;86;21008;-80
2022/10/23 04:15:58;;;;;;;52.85;26.10;;;;;;;7.46;100.00;99102.09;1700170;82;20994;-80
2022/10/23 04:18:29;;;;;;;48.40;26.42;;;;;;;7.48;100.00;99106.69;1694569;82;21035;-81
2022/10/23 04:21:02;;;;;;;44.63;26.23;;;;;;;7.51;100.00;99103.34;1713676;83;20943;-81
2022/10/23 04:23:31;;;;;;;44.75;26.15;;;;;;;7.50;100.00;99103.90;1725189;83;20970;-80
2022/10/23 04:26:03;;;;;;;49.38;26.73;;;;;;;7.51;100.00;99097.88;1701030;81;20987;-79
2022/10/23 04:28:31;;;;;;;47.50;27.20;;;;;;;7.51;100.00;99097.29;1693662;83;21065;-79
2022/10/23 04:31:01;;;;;;;46.13;25.95;;;;;;;7.52;100.00;99099.47;1714150;82;21939;-80
2022/10/23 04:33:34;;;;;;;45.45;25.55;;;;;;;7.53;100.00;99097.80;1695606;82;20971;-82
2022/10/23 04:36:08;;;;;;;45.90;26.95;;;;;;;7.53;100.00;99091.52;1730240;82;21545;-81
2022/10/23 04:38:41;;;;;;;42.10;25.72;;;;;;;7.54;100.00;99095.31;1717725;82;21017;-82
2022/10/23 04:41:13;;;;;;;48.68;25.52;;;;;;;7.54;100.00;99094.50;1705397;83;21062;-76
2022/10/23 04:43:39;;;;;;;45.63;26.55;;;;;;;7.55;100.00;99098.85;1676433;84;21039;-73
2022/10/23 04:46:09;;;;;;;49.23;26.52;;;;;;;7.54;100.00;99096.68;1690077;84;21522;-69
2022/10/23 04:48:39;;;;;;;47.78;25.95;;;;;;;7.55;100.00;99096.93;1689428;84;21027;-74
2022/10/23 04:51:21;;;;;;;50.88;26.65;;;;;;;7.62;100.00;99097.88;1703978;82;20979;-84
2022/10/23 04:53:52;;;;;;;48.95;26.25;;;;;;;7.63;100.00;99098.12;1709819;82;21410;-76
2022/10/23 04:56:31;;;;;;;48.33;24.85;;;;;;;7.64;100.00;99097.02;1709334;83;20923;-70
2022/10/23 04:59:08;;;;;;;44.48;25.25;;;;;;;7.64;100.00;99094.28;1687905;84;20966;-74
2022/10/23 05:01:39;;;;;;;43.68;24.87;;;;;;;7.66;100.00;99098.88;1719187;81;21069;-84
2022/10/23 05:04:10;;;;;;;43.38;24.10;;;;;;;7.68;100.00;99100.75;1714949;82;21007;-78
2022/10/23 05:06:42;;;;;;;44.23;25.00;;;;;;;7.69;100.00;99106.46;1686856;84;21015;-81
2022/10/23 05:09:15;;;;;;;46.23;25.48;;;;;;;7.70;100.00;99106.72;1693240;82;21858;-75
2022/10/23 05:11:59;;;;;;;46.68;25.32;;;;;;;7.72;100.00;99107.77;1696783;83;20935;-76
2022/10/23 05:14:30;;;;;;;41.88;24.10;;;;;;;7.73;100.00;99100.64;1715699;83;20974;-81
2022/10/23 05:17:17;;;;;;;41.65;24.43;;;;;;;7.76;100.00;99104.67;1722985;82;20947;-82
2022/10/23 05:19:52;;;;;;;45.83;25.50;;;;;;;7.79;100.00;99105.43;1722921;83;21050;-82
2022/10/23 05:22:27;;;;;;;47.85;25.65;;;;;;;7.81;100.00;99106.73;1725292;82;21784;-82
2022/10/23 05:24:57;;;;;;;45.48;26.07;;;;;;;7.85;100.00;99102.83;1693479;83;21021;-69
2022/10/23 05:27:29;;;;;;;49.80;25.90;;;;;;;7.87;100.00;99100.60;1719269;81;20982;-71
2022/10/23 05:30:06;;;;;;;46.08;25.25;;;;;;;7.89;100.00;99101.10;1716374;82;21509;-74
2022/10/23 05:32:35;;;;;;;48.63;26.05;;;;;;;7.91;100.00;99098.31;1706786;82;20899;-72
2022/10/23 05:35:10;;;;;;;46.70;26.97;;;;;;;7.93;100.00;99104.27;1722271;83;21777;-74
2022/10/23 05:37:45;;;;;;;47.58;27.13;;;;;;;7.98;100.00;99103.34;1713274;83;20927;-71
2022/10/23 05:40:21;;;;;;;44.58;24.87;;;;;;;8.00;100.00;99098.38;1689114;84;21090;-73
2022/10/23 05:42:53;;;;;;;43.85;24.80;;;;;;;8.03;100.00;99089.56;1712687;82;20889;-71
2022/10/23 05:45:27;;;;;;;46.37;25.30;;;;;;;8.06;100.00;99089.50;1710108;83;20931;-72
2022/10/23 05:48:05;;;;;;;47.88;26.52;;;;;;;8.08;100.00;99092.17;1689655;84;21504;-76
2022/10/23 05:50:43;;;;;;;52.43;26.30;;;;;;;8.11;100.00;99100.28;1691901;84;21083;-71
2022/10/23 05:53:28;;;;;;;42.20;25.20;;;;;;;8.14;100.00;99103.77;1693241;83;21014;-72
2022/10/23 05:56:08;;;;;;;48.87;25.12;;;;;;;8.16;100.00;99102.34;1664914;84;21018;-73
2022/10/23 05:58:44;;;;;;;53.38;27.77;;;;;;;8.18;100.00;99101.47;1682373;84;21045;-74
2022/10/23 06:01:17;;;;;;;49.45;25.62;;;;;;;8.19;100.00;99107.19;1669288;84;21164;-74
2022/10/23 06:03:59;;;;;;;51.08;27.22;;;;;;;8.22;100.00;99108.49;1689910;84;20923;-71
2022/10/23 06:06:32;;;;;;;52.53;26.70;;;;;;;8.25;100.00;99109.24;1699202;82;20990;-74
2022/10/23 06:09:01;;;;;;;61.00;31.87;;;;;;;8.27;100.00;99113.28;1703161;82;20934;-70
2022/10/23 06:11:34;;;;;;;52.33;29.05;;;;;;;8.29;100.00;99109.67;1699109;83;21071;-69
2022/10/23 06:14:06;;;;;;;47.23;26.60;;;;;;;8.32;100.00;99108.25;1691929;84;21249;-69
2022/10/23 06:16:36;;;;;;;71.10;40.55;;;;;;;8.35;100.00;99109.02;1722648;81;20990;-74
2022/10/23 06:19:12;;;;;;;53.15;28.83;;;;;;;8.39;100.00;99111.94;1723368;82;21568;-76
2022/10/23 06:21:42;;;;;;;47.98;26.40;;;;;;;8.43;100.00;99106.09;1716172;82;20982;-75
2022/10/23 06:24:17;;;;;;;43.35;24.10;;;;;;;8.47;100.00;99102.98;1704062;82;20958;-77
2022/10/23 06:26:49;;;;;;;45.28;24.35;;;;;;;8.52;100.00;99105.03;1725228;82;21107;-74
2022/10/23 06:29:29;;;;;;;46.75;24.05;;;;;;;8.55;100.00;99105.78;1715386;82;21418;-77
2022/10/23 06:32:00;;;;;;;41.90;24.23;;;;;;;8.62;100.00;99112.73;1715498;82;20966;-76
2022/10/23 06:34:27;;;;;;;40.40;22.85;;;;;;;8.65;100.00;99112.11;1722239;82;21576;-73
2022/10/23 06:36:59;;;;;;;43.13;22.65;;;;;;;8.67;100.00;99116.67;1724413;82;20951;-73
2022/10/23 06:39:35;;;;;;;38.83;21.48;;;;;;;8.70;100.00;99122.33;1718580;82;21615;-74
2022/10/23 06:42:06;;;;;;;45.03;22.60;;;;;;;8.74;100.00;99115.67;1722752;82;20899;-78
2022/10/23 06:44:54;;;;;;;46.02;23.73;;;;;;;8.77;100.00;99114.48;1723753;81;20923;-75
2022/10/23 06:47:31;;;;;;;40.45;21.85;;;;;;;8.80;100.00;99111.13;1720930;82;21463;-74
2022/10/23 06:50:10;;;;;;;46.30;23.95;;;;;;;8.82;100.00;99113.55;1715357;82;20986;-75
2022/10/23 06:52:41;;;;;;;48.35;25.30;;;;;;;8.84;100.00;99103.89;1692643;83;20990;-79
2022/10/23 06:55:25;;;;;;;44.30;24.63;;;;;;;8.88;100.00;99117.20;1694120;82;21300;-77
2022/10/23 06:57:47;;;;;;;45.30;24.20;;;;;;;8.89;100.00;99114.70;1715438;82;20982;-75
2022/10/23 07:00:21;;;;;;;38.53;22.27;;;;;;;8.92;100.00;99116.01;1727560;82;20994;-75
2022/10/23 07:02:54;;;;;;;47.17;24.32;;;;;;;8.94;100.00;99122.78;1707482;82;21485;-74
2022/10/23 07:05:25;;;;;;;43.70;23.83;;;;;;;8.97;100.00;99121.91;1703527;83;21228;-74
2022/10/23 07:07:52;;;;;;;42.10;23.07;;;;;;;9.00;100.00;99125.39;1708577;82;21513;-75
2022/10/23 07:10:24;;;;;;;49.05;23.42;;;;;;;9.02;100.00;99120.41;1690598;84;21009;-83
2022/10/23 07:12:59;;;;;;;43.40;23.83;;;;;;;9.03;100.00;99128.86;1705927;83;21045;-75
2022/10/23 07:15:27;;;;;;;46.53;24.15;;;;;;;9.05;100.00;99126.62;1696604;82;20981;-80
2022/10/23 07:18:00;;;;;;;46.92;24.92;;;;;;;9.06;100.00;99135.08;1685476;83;20950;-78
2022/10/23 07:20:27;;;;;;;44.27;23.38;;;;;;;9.06;100.00;99128.23;1671915;83;21026;-77
2022/10/23 07:22:59;;;;;;;43.95;22.48;;;;;;;9.06;100.00;99127.67;1675207;84;21051;-75
2022/10/23 07:25:32;;;;;;;53.48;24.80;;;;;;;9.09;100.00;99127.04;1629987;86;20931;-78
2022/10/23 07:28:04;;;;;;;46.37;23.53;;;;;;;9.10;100.00;99122.38;1685356;84;21156;-78
2022/10/23 07:30:32;;;;;;;48.08;24.92;;;;;;;9.12;100.00;99120.94;1688687;84;21105;-74
2022/10/23 07:33:01;;;;;;;44.80;21.45;;;;;;;9.14;100.00;99116.51;1706828;82;21068;-76
2022/10/23 07:35:41;;;;;;;55.65;23.87;;;;;;;9.17;100.00;99114.50;1706209;82;21527;-69
2022/10/23 07:38:13;;;;;;;38.85;21.35;;;;;;;9.20;100.00;99115.24;1719363;82;21025;-76
2022/10/23 07:40:48;;;;;;;56.55;25.55;;;;;;;9.26;100.00;99109.27;1714745;82;20899;-72
2022/10/23 07:43:21;;;;;;;54.03;26.60;;;;;;;9.31;100.00;99104.22;1726534;82;21717;-78
2022/10/23 07:45:54;;;;;;;59.27;27.93;;;;;;;9.38;100.00;99114.15;1660678;84;21054;-75
2022/10/23 07:48:33;;;;;;;53.50;25.72;;;;;;;9.44;100.00;99107.95;1665877;84;20983;-76
2022/10/23 07:51:10;;;;;;;56.28;26.42;;;;;;;9.49;100.00;99105.06;1727596;82;20979;-76
2022/10/23 07:53:43;;;;;;;52.90;25.97;;;;;;;9.59;100.00;99110.25;1727682;82;20892;-76
2022/10/23 07:56:28;;;;;;;55.05;27.27;;;;;;;9.65;100.00;99113.08;1714810;82;21482;-76
2022/10/23 07:59:16;;;;;;;59.58;27.62;;;;;;;9.67;100.00;99123.16;1653523;82;21521;-73
2022/10/23 08:01:47;;;;;;;52.23;25.68;;;;;;;9.68;100.00;99123.41;1719094;82;21470;-77
2022/10/23 08:04:19;;;;;;;50.85;23.60;;;;;;;9.72;100.00;99129.05;1713095;82;20966;-80
2022/10/23 08:06:52;;;;;;;50.98;23.67;;;;;;;9.78;100.00;99123.66;1728226;82;20958;-79
2022/10/23 08:09:25;;;;;;;53.73;24.43;;;;;;;9.81;100.00;99129.31;1726161;81;20990;-76
2022/10/23 08:11:59;;;;;;;46.15;23.57;;;;;;;9.86;100.00;99131.06;1691913;83;20851;-76
2022/10/23 08:14:36;;;;;;;54.70;25.30;;;;;;;9.95;100.00;99133.25;1721074;83;20923;-76
2022/10/23 08:17:08;;;;;;;50.28;24.63;;;;;;;10.04;100.00;99134.06;1694615;84;20946;-75
2022/10/23 08:19:57;;;;;;;54.00;23.80;;;;;;;10.09;100.00;99127.62;1719948;83;20939;-77
2022/10/23 08:22:27;;;;;;;46.55;23.22;;;;;;;10.10;100.00;99134.16;1716201;82;21157;-76
2022/10/23 08:24:57;;;;;;;47.90;23.15;;;;;;;10.09;100.00;99134.47;1725307;81;20889;-76
2022/10/23 08:27:27;;;;;;;44.30;23.42;;;;;;;10.08;100.00;99133.67;1707039;82;21584;-75
2022/10/23 08:30:01;;;;;;;46.73;23.80;;;;;;;10.10;100.00;99134.72;1696249;82;20872;-76
2022/10/23 08:32:32;;;;;;;49.13;22.93;;;;;;;10.10;100.00;99138.83;1720160;83;20928;-76
2022/10/23 08:35:12;;;;;;;51.65;23.20;;;;;;;10.14;100.00;99139.80;1726028;82;20915;-75
2022/10/23 08:37:43;;;;;;;41.63;22.58;;;;;;;10.15;100.00;99142.22;1723975;83;21560;-77
2022/10/23 08:40:21;;;;;;;48.58;23.87;;;;;;;10.19;100.00;99137.73;1704868;83;21558;-76
2022/10/23 08:43:20;;;;;;;46.70;22.82;;;;;;;10.20;100.00;99145.40;1672612;84;21648;-77
2022/10/23 08:46:03;;;;;;;41.98;21.60;;;;;;;10.23;100.00;99145.56;1691276;84;20978;-77
2022/10/23 08:48:50;;;;;;;46.13;21.40;;;;;;;10.25;100.00;99141.13;1642899;86;20943;-77
2022/10/23 08:51:30;;;;;;;41.88;22.98;;;;;;;10.29;100.00;99152.26;1666359;84;20903;-77
2022/10/23 08:54:14;;;;;;;43.65;22.95;;;;;;;10.32;100.00;99152.42;1687941;84;20939;-77
2022/10/23 08:56:55;;;;;;;38.80;20.48;;;;;;;10.33;100.00;99151.29;1696310;83;20899;-77
2022/10/23 08:59:44;;;;;;;40.12;20.50;;;;;;;10.34;100.00;99161.14;1723457;82;20930;-75
2022/10/23 09:02:36;;;;;;;;;;;;;;;10.35;100.00;99157.27;1727409;83;21463;-76
2022/10/23 09:05:04;;;;;;;33.85;18.32;;;;;;;10.38;100.00;99155.81;1706857;82;20097;-76
2022/10/23 09:08:28;;;;;;;35.30;19.80;;;;;;;10.39;100.00;99150.00;1723395;82;20966;-76
2022/10/23 09:11:13;;;;;;;40.67;20.95;;;;;;;10.43;100.00;99152.88;1725294;82;21045;-76
2022/10/23 09:14:11;;;;;;;41.05;20.57;;;;;;;10.52;100.00;99153.11;1700967;82;20898;-77
2022/10/23 09:16:53;;;;;;;43.90;21.55;;;;;;;10.57;100.00;99157.63;1676473;85;21591;-76
2022/10/23 09:19:28;;;;;;;34.95;19.20;;;;;;;10.62;100.00;99156.08;1640946;86;20986;-77
2022/10/23 09:21:59;;;;;;;37.38;19.12;;;;;;;10.66;100.00;99160.35;1633237;86;21593;-77
2022/10/23 09:24:32;;;;;;;36.77;19.92;;;;;;;10.70;100.00;99157.20;1712660;83;21019;-76
2022/10/23 09:27:03;;;;;;;36.70;18.37;;;;;;;10.74;100.00;99163.66;1683364;84;21543;-77
2022/10/23 09:29:38;;;;;;;35.70;20.27;;;;;;;10.75;100.00;99151.54;1687318;83;40571;-77
2022/10/23 09:32:10;;;;;;;31.85;17.35;;;;;;;10.76;100.00;99165.50;1705230;82;21068;-77
2022/10/23 09:34:38;;;;;;;34.18;18.48;;;;;;;10.75;100.00;99163.89;1717749;83;20947;-77
2022/10/23 09:37:30;;;;;;;34.50;18.35;;;;;;;10.75;100.00;99163.89;1698940;83;20939;-77
2022/10/23 09:40:26;;;;;;;33.13;17.42;;;;;;;10.78;100.00;99170.11;1682889;83;20860;-77
2022/10/23 09:43:05;;;;;;;30.62;17.90;;;;;;;10.81;100.00;99169.45;1723642;82;21576;-76
2022/10/23 09:45:34;;;;;;;28.65;17.82;;;;;;;10.78;100.00;99170.91;1699486;83;21001;-78
2022/10/23 09:48:18;;;;;;;29.02;18.42;;;;;;;10.81;100.00;99165.34;1700825;82;20939;-77
2022/10/23 09:50:56;;;;;;;33.25;18.42;;;;;;;10.81;100.00;99169.45;1709326;82;20907;-77
2022/10/23 09:53:38;;;;;;;30.27;17.98;;;;;;;10.79;100.00;99168.41;1716727;82;21057;-75
2022/10/23 09:56:10;;;;;;;36.83;18.77;;;;;;;10.79;100.00;99171.16;1696375;83;26815;-76
2022/10/23 09:58:45;;;;;;;31.82;18.95;;;;;;;10.77;100.00;99169.86;1706153;83;21006;-75
2022/10/23 10:01:31;;;;;;;29.75;18.42;;;;;;;10.77;100.00;99165.75;1718350;83;21446;-79
2022/10/23 10:04:04;;;;;;;29.55;17.82;;;;;;;10.73;100.00;99168.91;1725067;82;20954;-77
2022/10/23 10:06:37;;;;;;;28.15;16.85;;;;;;;10.72;100.00;99165.35;1680197;84;21747;-79
2022/10/23 10:09:14;;;;;;;28.98;17.52;;;;;;;10.71;100.00;99161.56;1689357;83;21109;-78
2022/10/23 10:11:51;;;;;;;28.67;17.23;;;;;;;10.75;100.00;99159.20;1679712;84;20868;-77
2022/10/23 10:14:39;;;;;;;29.77;19.25;;;;;;;10.77;100.00;99161.63;1692199;84;20954;-78
2022/10/23 10:17:47;;;;;;;33.83;18.00;;;;;;;10.76;100.00;99157.27;1707679;82;20998;-78
2022/10/23 10:20:42;;;;;;;32.33;18.10;;;;;;;10.76;100.00;99160.02;1716871;82;20931;-77
2022/10/23 10:23:33;;;;;;;30.88;17.50;;;;;;;10.78;100.00;99152.26;1711061;82;21860;-77
2022/10/23 10:26:34;;;;;;;29.98;17.37;;;;;;;10.79;100.00;99151.12;1713212;82;21572;-77
2022/10/23 10:29:34;;;;;;;25.45;15.78;;;;;;;10.81;100.00;99147.48;1690023;84;20943;-77
2022/10/23 10:32:39;;;;;;;32.63;17.65;;;;;;;10.83;100.00;99143.85;1705836;82;20995;-76
2022/10/23 10:35:33;;;;;;;27.95;16.40;;;;;;;10.88;100.00;99145.05;1683872;84;20985;-80
2022/10/23 10:38:26;;;;;;;27.20;15.72;;;;;;;10.92;100.00;99141.89;1711835;82;21751;-79
2022/10/23 10:41:22;;;;;;;23.45;15.38;;;;;;;10.95;100.00;99140.43;1727116;82;20896;-76
2022/10/23 10:44:15;;;;;;;26.17;14.80;;;;;;;10.97;100.00;99140.91;1663636;82;20869;-77
2022/10/23 10:46:47;;;;;;;22.58;14.73;;;;;;;11.02;100.00;99136.58;1730756;82;21065;-76
2022/10/23 10:49:32;;;;;;;23.32;13.90;;;;;;;11.04;100.00;99141.17;1729563;82;20896;-77
2022/10/23 10:52:59;;;;;;;27.37;13.32;;;;;;;11.07;100.00;99137.77;1715325;82;20923;-77
2022/10/23 10:55:40;;;;;;;20.57;12.23;;;;;;;11.08;100.00;99143.50;1698247;81;21236;-76
2022/10/23 10:58:22;;;;;;;21.05;14.45;;;;;;;11.08;100.00;99137.45;1681108;83;21589;-75
2022/10/23 11:00:58;;;;;;;20.75;13.25;;;;;;;11.12;100.00;99145.84;1699460;83;21492;-77
2022/10/23 11:03:41;;;;;;;20.02;11.80;;;;;;;11.15;100.00;99135.56;1705827;82;21062;-77
2022/10/23 11:06:15;;;;;;;20.23;12.18;;;;;;;11.17;100.00;99136.84;1696295;84;20950;-78
2022/10/23 11:08:45;;;;;;;17.50;11.73;;;;;;;11.18;100.00;99140.41;1688152;83;21506;-77
2022/10/23 11:11:41;;;;;;;17.02;11.00;;;;;;;11.16;100.00;99141.30;1676821;84;20917;-78
2022/10/23 11:14:25;;;;;;;17.73;10.82;;;;;;;11.16;100.00;99141.30;1674959;84;21049;-77
2022/10/23 11:17:23;;;;;;;23.75;13.25;;;;;;;11.17;100.00;99133.30;1689759;84;20990;-78
2022/10/23 11:20:34;;;;;;;18.02;10.90;;;;;;;11.21;100.00;99141.92;1665948;84;20954;-79
2022/10/23 11:23:41;;;;;;;19.62;10.50;;;;;;;11.36;100.00;99143.88;1687380;84;20956;-77
2022/10/23 11:26:21;;;;;;;17.02;9.93;;;;;;;11.58;100.00;99134.77;1688560;83;20935;-79
2022/10/23 11:29:27;;;;;;;18.42;11.57;;;;;;;11.74;100.00;99144.62;1689496;84;21041;-80
2022/10/23 11:32:15;;;;;;;15.85;10.35;;;;;;;11.78;100.00;99144.22;1703254;83;20903;-82
2022/10/23 11:35:05;;;;;;;18.85;11.03;;;;;;;11.81;100.00;99146.31;1687949;84;21143;-75
2022/10/23 11:37:39;;;;;;;16.20;9.75;;;;;;;11.82;100.00;99145.73;1680904;84;21003;-74
2022/10/23 11:40:14;;;;;;;14.47;9.43;;;;;;;11.82;100.00;99143.80;1656018;84;20974;-74
2022/10/23 11:42:52;;;;;;;14.15;9.40;;;;;;;11.87;100.00;99147.73;1685474;84;21066;-75
2022/10/23 11:45:34;;;;;;;14.38;9.50;;;;;;;11.96;100.00;99156.49;1681806;84;21025;-77
2022/10/23 11:48:26;;;;;;;13.30;8.40;;;;;;;12.03;100.00;99156.77;1711352;83;21805;-77
2022/10/23 11:50:56;;;;;;;14.50;7.85;;;;;;;12.09;100.00;99162.31;1689113;84;28570;-76
2022/10/23 11:53:37;;;;;;;16.35;8.90;;;;;;;12.13;100.00;99161.88;1688808;84;21568;-78
2022/10/23 11:56:12;;;;;;;13.38;7.80;;;;;;;12.19;100.00;99163.25;1677123;84;21078;-78
2022/10/23 11:58:51;;;;;;;11.83;7.87;;;;;;;12.32;100.00;99154.50;1683805;84;21090;-77
2022/10/23 12:01:29;;;;;;;11.73;7.50;;;;;;;12.58;100.00;99161.16;1705328;83;21171;-77
2022/10/23 12:04:18;;;;;;;11.80;7.42;;;;;;;13.01;100.00;99153.80;1682338;83;21046;-77